Time;durP1;ratioP1;P1;durP2;ratioP2;P2;SDS_P1;SDS_P2;PMS_P1;PMS_P2;Temp;Humidity;BMP_temperature;BMP_pressure;BME280_temperature;BME280_humidity;BME280_pressure;Samples;Min_cycle;Max_cycle;Signal;HPM_P1;HPM_P2
2021/06/19 00:00:13;;;;;;;13.50;12.50;;;24.60;1.00;;;;;;5062153;28;20541;-76
2021/06/19 00:02:41;;;;;;;13.63;12.43;;;24.60;1.00;;;;;;5058280;28;20471;-75
2021/06/19 00:05:09;;;;;;;13.10;12.10;;;24.50;1.00;;;;;;5062487;28;20466;-75
2021/06/19 00:07:36;;;;;;;14.43;13.13;;;24.50;1.00;;;;;;5058974;28;20554;-75
2021/06/19 00:10:05;;;;;;;13.70;12.70;;;24.50;1.00;;;;;;5058635;28;20491;-75
2021/06/19 00:12:34;;;;;;;14.13;13.03;;;24.50;1.00;;;;;;5058439;28;20878;-75
2021/06/19 00:15:00;;;;;;;15.20;13.80;;;24.50;1.00;;;;;;5061809;28;20549;-76
2021/06/19 00:17:27;;;;;;;14.60;13.50;;;24.50;1.00;;;;;;5060296;28;20449;-75
2021/06/19 00:19:55;;;;;;;14.17;13.17;;;24.50;1.00;;;;;;5061062;28;20462;-75
2021/06/19 00:22:22;;;;;;;14.40;13.30;;;24.40;1.00;;;;;;5038080;28;20468;-74
2021/06/19 00:24:48;;;;;;;15.50;14.13;;;24.30;1.00;;;;;;5060546;28;21204;-76
2021/06/19 00:27:15;;;;;;;15.20;14.10;;;24.30;1.00;;;;;;5063559;28;20483;-77
2021/06/19 00:29:41;;;;;;;16.30;15.00;;;24.30;1.00;;;;;;5063128;28;20460;-75
2021/06/19 00:32:08;;;;;;;15.80;14.57;;;24.30;1.00;;;;;;5070689;28;20466;-75
2021/06/19 00:34:35;;;;;;;14.70;13.60;;;24.30;1.00;;;;;;5070108;28;20679;-75
2021/06/19 00:37:03;;;;;;;15.83;14.47;;;24.30;1.00;;;;;;5071181;28;20518;-77
2021/06/19 00:39:30;;;;;;;14.23;13.13;;;24.30;1.00;;;;;;5067086;28;20438;-76
2021/06/19 00:41:56;;;;;;;15.17;13.97;;;24.20;1.00;;;;;;5066582;28;20478;-76
2021/06/19 00:44:23;;;;;;;14.30;13.10;;;24.20;1.00;;;;;;5061209;28;20629;-73
2021/06/19 00:46:51;;;;;;;13.97;13.07;;;24.20;1.00;;;;;;5066622;28;20469;-76
2021/06/19 00:49:17;;;;;;;13.93;12.90;;;24.10;1.00;;;;;;5068556;28;20562;-76
2021/06/19 00:51:56;;;;;;;15.07;13.97;;;24.00;1.00;;;;;;5065920;28;22092;-74
2021/06/19 00:54:24;;;;;;;15.37;14.30;;;24.00;1.00;;;;;;5064150;28;20444;-74
2021/06/19 00:56:51;;;;;;;14.03;12.90;;;23.90;1.00;;;;;;5067590;28;20450;-74
2021/06/19 00:59:18;;;;;;;13.90;12.80;;;23.90;1.00;;;;;;5067315;28;20542;-74
2021/06/19 01:01:46;;;;;;;14.93;13.67;;;23.90;1.00;;;;;;5066190;28;20429;-75
2021/06/19 01:04:13;;;;;;;14.17;13.17;;;23.80;1.00;;;;;;5068688;28;21060;-75
2021/06/19 01:06:40;;;;;;;13.27;12.37;;;23.80;1.00;;;;;;5071550;28;20466;-73
2021/06/19 01:09:10;;;;;;;13.87;12.97;;;23.80;1.00;;;;;;5047976;28;20491;-76
2021/06/19 01:11:39;;;;;;;14.13;13.00;;;23.80;1.00;;;;;;5071222;28;21237;-73
2021/06/19 01:14:07;;;;;;;15.13;14.03;;;23.70;1.00;;;;;;5061920;28;20601;-74
2021/06/19 01:16:34;;;;;;;13.67;12.77;;;23.70;1.00;;;;;;5071518;28;21130;-76
2021/06/19 01:19:01;;;;;;;13.90;12.90;;;23.70;1.00;;;;;;5063606;28;20466;-74
2021/06/19 01:21:29;;;;;;;14.50;13.50;;;23.70;1.00;;;;;;5065196;28;20443;-76
2021/06/19 01:23:58;;;;;;;14.90;13.90;;;23.70;1.00;;;;;;5070213;28;20454;-74
2021/06/19 01:26:27;;;;;;;15.23;14.13;;;23.60;1.00;;;;;;5068231;28;20446;-76
2021/06/19 01:28:55;;;;;;;13.60;12.60;;;23.60;1.00;;;;;;5068554;28;20450;-75
2021/06/19 01:31:22;;;;;;;14.40;13.27;;;23.50;1.00;;;;;;5067401;28;20450;-76
2021/06/19 01:33:50;;;;;;;13.43;12.33;;;23.50;1.00;;;;;;5070621;28;21275;-76
2021/06/19 01:36:18;;;;;;;14.70;13.70;;;23.40;1.00;;;;;;5068349;28;20446;-75
2021/06/19 01:38:47;;;;;;;14.80;13.60;;;23.40;1.00;;;;;;5067795;28;20964;-75
2021/06/19 01:41:15;;;;;;;15.57;14.30;;;23.50;1.00;;;;;;5063262;28;21630;-74
2021/06/19 01:43:44;;;;;;;15.07;13.77;;;23.50;1.00;;;;;;5066245;28;20476;-74
2021/06/19 01:46:11;;;;;;;13.70;12.70;;;23.40;1.00;;;;;;5064737;28;20473;-75
2021/06/19 01:48:38;;;;;;;13.90;12.70;;;23.40;1.00;;;;;;5064481;28;20422;-75
2021/06/19 01:51:07;;;;;;;15.67;14.10;;;23.30;1.00;;;;;;5067578;28;20479;-75
2021/06/19 01:53:34;;;;;;;13.83;12.70;;;23.30;1.00;;;;;;5069622;28;21132;-74
2021/06/19 01:56:01;;;;;;;14.80;13.50;;;23.30;1.00;;;;;;5067417;28;20593;-76
2021/06/19 01:58:29;;;;;;;14.60;13.53;;;23.30;1.00;;;;;;5063520;28;20449;-74
2021/06/19 02:00:57;;;;;;;13.67;12.67;;;23.30;1.00;;;;;;5071922;28;20495;-76
2021/06/19 02:03:24;;;;;;;14.23;13.23;;;23.30;1.00;;;;;;5071479;28;20472;-76
2021/06/19 02:05:51;;;;;;;14.73;13.63;;;23.20;1.00;;;;;;5082336;28;20416;-73
2021/06/19 02:08:20;;;;;;;14.27;13.07;;;23.20;1.00;;;;;;5094291;28;20486;-74
2021/06/19 02:10:47;;;;;;;14.23;13.23;;;23.20;1.00;;;;;;5065717;28;21259;-73
2021/06/19 02:13:14;;;;;;;14.07;12.97;;;23.10;1.00;;;;;;5066663;28;20455;-75
2021/06/19 02:15:43;;;;;;;14.60;13.37;;;23.10;1.00;;;;;;5062446;28;20446;-74
2021/06/19 02:18:11;;;;;;;14.17;12.97;;;23.10;1.00;;;;;;5069493;28;24070;-75
2021/06/19 02:20:37;;;;;;;14.70;13.40;;;23.10;1.00;;;;;;5068218;28;20454;-74
2021/06/19 02:23:05;;;;;;;14.77;13.47;;;23.00;1.00;;;;;;5066533;28;20471;-73
2021/06/19 02:25:32;;;;;;;14.50;13.40;;;23.00;1.00;;;;;;5063201;28;20443;-75
2021/06/19 02:28:00;;;;;;;15.40;13.90;;;23.00;1.00;;;;;;5065498;28;20460;-74
2021/06/19 02:30:30;;;;;;;14.27;13.20;;;22.90;1.00;;;;;;5065708;28;20445;-76
2021/06/19 02:32:58;;;;;;;14.60;13.50;;;22.90;1.00;;;;;;5064374;28;20472;-76
2021/06/19 02:35:28;;;;;;;14.40;13.20;;;22.90;1.00;;;;;;5066924;28;20556;-76
2021/06/19 02:37:55;;;;;;;16.43;15.10;;;22.80;1.00;;;;;;5064651;28;20969;-76
2021/06/19 02:40:22;;;;;;;15.50;14.20;;;22.80;1.00;;;;;;5063432;28;20441;-75
2021/06/19 02:42:49;;;;;;;15.40;14.20;;;22.80;1.00;;;;;;5065896;28;21263;-75
2021/06/19 02:45:16;;;;;;;15.10;13.90;;;22.80;1.00;;;;;;5062960;28;20445;-76
2021/06/19 02:47:45;;;;;;;19.30;17.80;;;22.80;1.00;;;;;;5064662;28;20494;-76
2021/06/19 02:50:13;;;;;;;15.70;14.37;;;22.80;1.00;;;;;;5066310;28;20520;-74
2021/06/19 02:52:43;;;;;;;16.50;15.20;;;22.70;1.00;;;;;;5063263;28;20465;-76
2021/06/19 02:55:11;;;;;;;16.07;14.43;;;22.70;1.00;;;;;;5063938;28;20465;-75
2021/06/19 02:57:38;;;;;;;15.90;14.80;;;22.70;1.00;;;;;;5066183;28;20455;-74
2021/06/19 03:00:06;;;;;;;16.13;14.40;;;22.70;1.00;;;;;;5059492;28;20976;-75
2021/06/19 03:02:33;;;;;;;15.73;14.33;;;22.70;1.00;;;;;;5063155;28;20452;-76
2021/06/19 03:04:59;;;;;;;15.53;14.33;;;22.70;1.00;;;;;;5074853;28;20521;-75
2021/06/19 03:07:26;;;;;;;16.40;15.20;;;22.70;1.00;;;;;;5065985;28;20436;-76
2021/06/19 03:09:55;;;;;;;16.83;15.43;;;22.70;1.00;;;;;;5066121;28;20457;-76
2021/06/19 03:12:23;;;;;;;15.27;14.17;;;22.70;1.00;;;;;;5065654;28;20962;-74
2021/06/19 03:14:49;;;;;;;16.87;15.47;;;22.70;1.00;;;;;;5066180;28;21193;-75
2021/06/19 03:17:16;;;;;;;15.70;14.60;;;22.60;1.00;;;;;;5062339;28;20466;-76
2021/06/19 03:19:43;;;;;;;14.77;13.57;;;22.70;1.00;;;;;;5062566;28;20435;-75
2021/06/19 03:22:10;;;;;;;19.50;17.90;;;22.70;1.00;;;;;;5066403;28;20540;-73
2021/06/19 03:24:40;;;;;;;16.20;15.10;;;22.70;1.00;;;;;;5060983;28;20445;-75
2021/06/19 03:27:09;;;;;;;16.30;15.10;;;22.60;1.00;;;;;;5066656;28;20449;-74
2021/06/19 03:29:35;;;;;;;16.33;15.07;;;22.70;1.00;;;;;;5065522;28;20461;-76
2021/06/19 03:32:02;;;;;;;16.47;15.13;;;22.70;1.00;;;;;;5064490;28;20465;-76
2021/06/19 03:34:29;;;;;;;15.40;14.20;;;22.60;1.00;;;;;;5065884;28;20449;-75
2021/06/19 03:36:59;;;;;;;17.00;15.67;;;22.60;1.00;;;;;;5063019;28;20461;-73
2021/06/19 03:39:26;;;;;;;16.67;15.13;;;22.60;1.00;;;;;;5054482;28;20453;-75
2021/06/19 03:41:52;;;;;;;17.13;15.80;;;22.60;1.00;;;;;;5071651;28;21991;-75
2021/06/19 03:44:21;;;;;;;15.73;14.53;;;22.60;1.00;;;;;;5065648;28;20470;-74
2021/06/19 03:46:47;;;;;;;16.07;14.87;;;22.60;1.00;;;;;;5058111;28;20457;-74
2021/06/19 03:49:14;;;;;;;16.40;15.20;;;22.60;1.00;;;;;;5066799;28;20983;-75
2021/06/19 03:51:41;;;;;;;17.47;16.07;;;22.60;1.00;;;;;;5067986;28;20467;-74
2021/06/19 03:54:07;;;;;;;17.07;15.90;;;22.60;1.00;;;;;;5063875;28;20468;-75
2021/06/19 03:56:34;;;;;;;16.50;15.20;;;22.60;1.00;;;;;;5058989;28;20476;-76
2021/06/19 03:59:01;;;;;;;15.87;14.67;;;22.50;1.00;;;;;;5063054;28;20561;-75
2021/06/19 04:01:29;;;;;;;18.40;17.00;;;22.60;1.00;;;;;;5062460;28;20449;-77
2021/06/19 04:03:56;;;;;;;17.43;15.73;;;22.50;1.00;;;;;;5063341;28;20444;-74
2021/06/19 04:06:24;;;;;;;16.50;15.30;;;22.60;1.00;;;;;;5072316;28;20480;-74
2021/06/19 04:08:51;;;;;;;18.23;16.70;;;22.60;1.00;;;;;;5068739;28;21334;-74
2021/06/19 04:11:17;;;;;;;16.67;15.47;;;22.60;1.00;;;;;;5066309;28;21060;-75
2021/06/19 04:13:44;;;;;;;17.37;15.83;;;22.60;1.00;;;;;;5065989;28;20421;-74
2021/06/19 04:16:11;;;;;;;16.80;15.40;;;22.60;1.00;;;;;;5067649;28;20988;-73
2021/06/19 04:18:40;;;;;;;18.30;16.80;;;22.70;1.00;;;;;;5065827;28;20457;-74
2021/06/19 04:21:07;;;;;;;17.30;15.90;;;22.70;1.00;;;;;;5067760;28;20455;-76
2021/06/19 04:23:34;;;;;;;16.00;14.80;;;22.80;1.00;;;;;;5063449;28;20450;-74
2021/06/19 04:26:01;;;;;;;17.50;16.20;;;22.80;1.00;;;;;;5063695;28;20452;-75
2021/06/19 04:28:28;;;;;;;18.07;16.77;;;22.80;1.00;;;;;;5065765;28;20488;-75
2021/06/19 04:30:58;;;;;;;18.27;16.77;;;22.80;1.00;;;;;;5062570;28;21290;-75
2021/06/19 04:33:25;;;;;;;18.73;17.30;;;22.90;1.00;;;;;;5064924;28;20464;-76
2021/06/19 04:35:53;;;;;;;17.50;16.30;;;22.90;1.00;;;;;;5065726;28;20500;-75
2021/06/19 04:38:20;;;;;;;17.97;16.47;;;23.00;1.00;;;;;;5067321;28;25076;-74
2021/06/19 04:40:50;;;;;;;16.40;15.10;;;23.00;1.00;;;;;;5066435;28;20465;-74
2021/06/19 04:43:24;;;;;;;17.80;16.27;;;23.00;1.00;;;;;;5066321;28;20912;-76
2021/06/19 04:45:50;;;;;;;16.87;15.60;;;23.00;1.00;;;;;;5065470;28;21679;-75
2021/06/19 04:48:17;;;;;;;17.90;16.30;;;23.00;1.00;;;;;;5066976;28;21503;-76
2021/06/19 04:50:44;;;;;;;20.40;18.20;;;23.10;1.00;;;;;;5069770;28;20469;-75
2021/06/19 04:53:13;;;;;;;17.30;16.00;;;23.10;1.00;;;;;;5068386;28;20772;-75
2021/06/19 04:55:40;;;;;;;18.40;17.10;;;23.10;1.00;;;;;;5068366;28;21223;-74
2021/06/19 04:58:06;;;;;;;18.17;16.97;;;23.10;1.00;;;;;;5085160;28;20407;-73
2021/06/19 05:00:34;;;;;;;18.37;16.87;;;23.10;1.00;;;;;;5090501;28;20461;-72
2021/06/19 05:03:01;;;;;;;18.87;17.47;;;23.20;1.00;;;;;;5079484;28;20442;-75
2021/06/19 05:05:29;;;;;;;16.83;15.73;;;23.20;1.00;;;;;;5072570;28;20462;-75
2021/06/19 05:07:55;;;;;;;18.13;16.63;;;23.30;1.00;;;;;;5073101;28;20465;-74
2021/06/19 05:10:23;;;;;;;18.40;16.80;;;23.40;1.00;;;;;;5059975;28;20474;-76
2021/06/19 05:12:50;;;;;;;18.17;16.77;;;23.40;1.00;;;;;;5067547;28;20947;-74
2021/06/19 05:15:21;;;;;;;16.70;15.60;;;23.50;1.00;;;;;;5064407;28;20541;-76
2021/06/19 05:17:49;;;;;;;18.10;16.60;;;23.60;1.00;;;;;;5066635;28;20458;-75
2021/06/19 05:20:15;;;;;;;17.40;16.23;;;23.70;1.00;;;;;;5068225;28;20456;-74
2021/06/19 05:22:42;;;;;;;17.10;15.60;;;23.80;1.00;;;;;;5064075;28;20447;-74
2021/06/19 05:25:12;;;;;;;17.40;16.00;;;23.90;1.00;;;;;;5065559;28;20980;-76
2021/06/19 05:27:41;;;;;;;17.43;16.13;;;23.90;1.00;;;;;;5061578;28;20442;-75
2021/06/19 05:30:08;;;;;;;16.60;15.40;;;24.00;1.00;;;;;;5061127;28;20502;-74
2021/06/19 05:32:35;;;;;;;17.73;16.07;;;24.00;1.00;;;;;;5064360;28;20447;-74
2021/06/19 05:35:02;;;;;;;18.07;16.83;;;24.10;1.00;;;;;;5067159;28;20484;-76
2021/06/19 05:37:29;;;;;;;18.23;16.73;;;24.20;1.00;;;;;;5065324;28;20460;-74
2021/06/19 05:39:55;;;;;;;17.37;16.03;;;24.30;1.00;;;;;;5068039;28;20462;-76
2021/06/19 05:42:22;;;;;;;18.10;16.60;;;24.40;1.00;;;;;;5077969;28;20512;-74
2021/06/19 05:44:50;;;;;;;17.97;16.57;;;24.50;1.00;;;;;;5072834;28;20449;-74
2021/06/19 05:47:17;;;;;;;16.30;15.00;;;24.60;1.00;;;;;;5049441;28;21064;-75
2021/06/19 05:49:44;;;;;;;17.23;15.90;;;24.70;1.00;;;;;;5049772;28;20453;-74
2021/06/19 05:52:10;;;;;;;16.07;14.60;;;24.80;1.00;;;;;;5073507;28;21078;-74
2021/06/19 05:54:37;;;;;;;16.07;14.80;;;24.90;1.00;;;;;;5075567;28;20477;-73
2021/06/19 05:57:05;;;;;;;16.97;15.47;;;25.00;1.00;;;;;;5074214;28;20602;-75
2021/06/19 05:59:31;;;;;;;20.33;15.40;;;25.10;1.00;;;;;;5078349;28;20448;-75
2021/06/19 06:02:02;;;;;;;16.27;15.10;;;25.30;1.00;;;;;;5067414;28;20430;-75
2021/06/19 06:04:29;;;;;;;16.10;14.90;;;25.40;1.00;;;;;;5074516;28;21279;-76
2021/06/19 06:06:56;;;;;;;15.87;14.43;;;25.50;1.00;;;;;;5071035;28;20464;-75
2021/06/19 06:09:22;;;;;;;14.97;13.83;;;25.60;1.00;;;;;;5070833;28;20462;-76
2021/06/19 06:11:49;;;;;;;14.57;13.67;;;25.70;1.00;;;;;;5070422;28;20459;-75
2021/06/19 06:14:15;;;;;;;14.20;13.10;;;25.80;1.00;;;;;;5071192;28;20474;-75
2021/06/19 06:16:42;;;;;;;20.13;18.33;;;26.00;1.00;;;;;;5069313;28;20441;-75
2021/06/19 06:19:10;;;;;;;13.90;12.67;;;26.10;1.00;;;;;;5051397;28;20457;-76
2021/06/19 06:21:37;;;;;;;13.70;12.70;;;26.20;1.00;;;;;;5074280;28;20417;-76
2021/06/19 06:24:04;;;;;;;14.90;13.80;;;26.30;1.00;;;;;;5065062;28;20587;-74
2021/06/19 06:26:31;;;;;;;15.33;13.80;;;26.40;1.00;;;;;;5069773;28;20464;-74
2021/06/19 06:28:57;;;;;;;14.23;13.07;;;26.50;1.00;;;;;;5072758;28;20489;-74
2021/06/19 06:31:24;;;;;;;13.87;12.97;;;26.50;1.00;;;;;;5075258;28;20459;-76
2021/06/19 06:33:51;;;;;;;14.17;13.20;;;26.60;1.00;;;;;;5069420;28;20479;-77
2021/06/19 06:36:19;;;;;;;14.63;13.50;;;26.60;1.00;;;;;;5071345;28;20454;-73
2021/06/19 06:38:46;;;;;;;14.53;13.63;;;26.70;1.00;;;;;;5064470;28;20461;-74
2021/06/19 06:41:13;;;;;;;15.83;14.43;;;26.70;1.00;;;;;;5068567;28;20431;-76
2021/06/19 06:43:39;;;;;;;13.63;12.73;;;26.80;1.00;;;;;;5074440;28;20489;-76
2021/06/19 06:46:06;;;;;;;13.03;12.13;;;26.90;1.00;;;;;;5072642;28;21360;-75
2021/06/19 06:48:33;;;;;;;13.57;12.43;;;27.00;1.00;;;;;;5074457;28;20454;-76
2021/06/19 06:50:59;;;;;;;13.43;12.43;;;27.00;1.00;;;;;;5079151;28;20442;-77
2021/06/19 06:53:27;;;;;;;13.83;12.83;;;27.10;1.00;;;;;;5072272;28;20531;-75
2021/06/19 06:55:54;;;;;;;14.50;13.50;;;27.10;1.00;;;;;;5077634;28;20471;-75
2021/06/19 06:58:20;;;;;;;14.53;13.53;;;27.20;1.00;;;;;;5075495;28;20471;-75
2021/06/19 07:00:47;;;;;;;14.63;13.47;;;27.30;1.00;;;;;;5073686;28;20547;-75
2021/06/19 07:03:14;;;;;;;13.97;12.73;;;27.30;1.00;;;;;;5069183;28;20452;-77
2021/06/19 07:05:40;;;;;;;13.87;12.80;;;27.40;1.00;;;;;;5059982;28;20783;-76
2021/06/19 07:08:07;;;;;;;13.57;12.67;;;27.50;1.00;;;;;;5073687;28;20486;-76
2021/06/19 07:10:35;;;;;;;13.90;12.80;;;27.60;1.00;;;;;;5073961;28;20447;-76
2021/06/19 07:13:02;;;;;;;13.20;12.30;;;27.80;1.00;;;;;;5069680;28;20441;-76
2021/06/19 07:15:28;;;;;;;13.23;12.03;;;27.90;1.00;;;;;;5071293;28;20467;-78
2021/06/19 07:17:55;;;;;;;13.10;12.23;;;28.00;1.00;;;;;;5059686;28;20456;-78
2021/06/19 07:20:21;;;;;;;13.67;12.40;;;28.10;1.00;;;;;;5078864;28;20948;-79
2021/06/19 07:22:48;;;;;;;13.80;12.70;;;28.10;1.00;;;;;;5061462;28;20447;-79
2021/06/19 07:25:16;;;;;;;13.17;12.27;;;28.20;1.00;;;;;;5073683;28;20551;-78
2021/06/19 07:27:46;;;;;;;12.43;11.53;;;28.30;1.00;;;;;;5073060;28;20556;-80
2021/06/19 07:30:14;;;;;;;13.77;12.67;;;28.40;1.00;;;;;;5074515;28;20446;-79
2021/06/19 07:32:41;;;;;;;13.63;12.53;;;28.50;1.00;;;;;;5076982;28;20446;-80
2021/06/19 07:35:09;;;;;;;14.90;13.60;;;28.60;1.00;;;;;;5079240;28;22183;-78
2021/06/19 07:37:36;;;;;;;13.30;11.90;;;28.70;1.00;;;;;;5076621;28;20451;-79
2021/06/19 07:40:03;;;;;;;14.20;11.87;;;28.90;1.00;;;;;;5074044;28;20459;-79
2021/06/19 07:42:31;;;;;;;12.93;12.03;;;29.10;1.00;;;;;;5073483;28;20458;-78
2021/06/19 07:44:59;;;;;;;11.70;10.90;;;29.10;1.00;;;;;;5073513;28;20535;-79
2021/06/19 07:47:25;;;;;;;12.20;11.40;;;29.20;1.00;;;;;;5073668;28;20460;-80
2021/06/19 07:49:52;;;;;;;12.93;12.03;;;29.20;1.00;;;;;;5071269;28;20444;-80
2021/06/19 07:52:19;;;;;;;13.40;12.50;;;29.40;1.00;;;;;;5090284;28;20507;-80
2021/06/19 07:54:45;;;;;;;12.50;11.40;;;29.50;1.00;;;;;;5077716;28;20528;-79
2021/06/19 07:57:13;;;;;;;11.90;10.97;;;29.60;1.00;;;;;;5075854;28;20452;-78
2021/06/19 07:59:39;;;;;;;12.60;11.67;;;29.80;1.00;;;;;;5071916;28;20466;-79
2021/06/19 08:02:07;;;;;;;13.90;12.50;;;30.00;1.00;;;;;;5053841;28;20840;-78
2021/06/19 08:04:35;;;;;;;13.40;12.37;;;30.00;1.00;;;;;;5070058;28;20529;-78
2021/06/19 08:07:01;;;;;;;14.43;13.20;;;30.10;1.00;;;;;;5074304;28;20463;-79
2021/06/19 08:09:28;;;;;;;13.13;12.23;;;30.30;1.00;;;;;;5080205;28;20464;-79
2021/06/19 08:11:55;;;;;;;11.07;10.37;;;30.50;1.00;;;;;;5088042;28;20444;-79
2021/06/19 08:14:22;;;;;;;11.80;10.87;;;30.70;1.00;;;;;;5083559;28;20576;-79
2021/06/19 08:16:51;;;;;;;12.87;11.87;;;30.80;1.00;;;;;;5081509;28;20457;-80
2021/06/19 08:19:20;;;;;;;12.33;11.30;;;31.00;1.00;;;;;;5069707;28;21186;-79
2021/06/19 08:21:47;;;;;;;11.63;10.80;;;31.10;1.00;;;;;;5068238;28;20457;-76
2021/06/19 08:24:14;;;;;;;12.47;11.63;;;31.20;1.00;;;;;;5066235;28;20458;-79
2021/06/19 08:26:40;;;;;;;12.50;11.40;;;31.30;1.00;;;;;;5069160;28;20947;-80
2021/06/19 08:29:08;;;;;;;12.67;11.57;;;31.30;1.00;;;;;;5066859;28;20903;-79
2021/06/19 08:31:35;;;;;;;10.70;9.97;;;31.40;1.00;;;;;;5069602;28;20440;-78
2021/06/19 08:34:03;;;;;;;11.57;10.60;;;31.40;1.00;;;;;;5068315;28;20831;-78
2021/06/19 08:36:31;;;;;;;12.93;11.73;;;31.50;1.00;;;;;;5068552;28;20477;-77
2021/06/19 08:38:58;;;;;;;12.63;11.50;;;31.70;1.00;;;;;;5053048;28;20525;-78
2021/06/19 08:41:25;;;;;;;12.27;11.30;;;31.90;1.00;;;;;;5076873;28;20424;-78
2021/06/19 08:43:52;;;;;;;11.53;10.60;;;32.00;1.00;;;;;;5070245;28;20446;-78
2021/06/19 08:46:20;;;;;;;12.37;11.47;;;32.20;1.00;;;;;;5066243;28;20742;-78
2021/06/19 08:48:51;;;;;;;12.37;11.10;;;32.40;1.00;;;;;;5072992;28;20482;-79
2021/06/19 08:51:19;;;;;;;12.20;11.10;;;32.40;1.00;;;;;;5062940;28;20440;-79
2021/06/19 08:53:49;;;;;;;12.60;11.50;;;32.50;1.00;;;;;;5061656;28;20463;-79
2021/06/19 08:56:17;;;;;;;13.13;11.90;;;32.60;1.00;;;;;;5039620;28;50154;-80
2021/06/19 08:58:44;;;;;;;11.53;10.63;;;32.70;1.00;;;;;;5067871;28;20451;-81
2021/06/19 09:01:11;;;;;;;11.60;10.80;;;32.90;1.00;;;;;;5056644;28;20437;-80
2021/06/19 09:03:38;;;;;;;13.83;12.50;;;33.00;1.00;;;;;;5075677;28;20481;-78
2021/06/19 09:06:19;;;;;;;11.80;10.80;;;33.20;1.00;;;;;;5078817;28;20546;-77
2021/06/19 09:09:09;;;;;;;10.93;10.10;;;33.20;1.00;;;;;;5074343;28;20448;-78
2021/06/19 09:11:39;;;;;;;11.97;10.77;;;33.30;1.00;;;;;;5057439;28;20533;-81
2021/06/19 09:14:07;;;;;;;10.03;9.43;;;33.40;1.00;;;;;;5074884;28;21045;-81
2021/06/19 09:16:34;;;;;;;9.67;9.07;;;33.50;1.00;;;;;;5064090;28;20549;-84
2021/06/19 09:19:01;;;;;;;11.70;10.60;;;33.70;1.00;;;;;;5082003;28;20966;-85
2021/06/19 09:21:31;;;;;;;10.03;9.23;;;33.80;1.00;;;;;;5075409;28;20596;-79
2021/06/19 09:23:58;;;;;;;10.07;9.10;;;34.00;1.00;;;;;;5076404;28;21197;-79
2021/06/19 09:26:29;;;;;;;9.57;8.77;;;34.10;1.00;;;;;;5078018;28;20509;-79
2021/06/19 09:29:09;;;;;;;9.67;8.97;;;34.20;1.00;;;;;;5078286;28;20466;-79
2021/06/19 09:31:48;;;;;;;9.93;9.33;;;34.40;1.00;;;;;;5077906;28;20454;-78
2021/06/19 09:34:17;;;;;;;9.27;8.67;;;34.70;1.00;;;;;;5070952;28;21705;-78
2021/06/19 09:36:48;;;;;;;9.10;8.20;;;34.90;1.00;;;;;;5069482;28;21017;-78
2021/06/19 09:39:17;;;;;;;9.77;9.07;;;35.10;1.00;;;;;;5079782;28;20431;-79
2021/06/19 09:41:47;;;;;;;9.37;8.70;;;35.30;1.00;;;;;;5079152;28;20442;-79
2021/06/19 09:44:14;;;;;;;8.30;7.70;;;35.90;1.00;;;;;;5083604;28;20463;-79
2021/06/19 09:46:41;;;;;;;9.27;8.47;;;36.50;1.00;;;;;;5077391;28;20654;-80
2021/06/19 09:49:16;;;;;;;9.20;8.50;;;37.30;1.00;;;;;;5078869;28;20491;-80
2021/06/19 09:51:48;;;;;;;9.23;8.53;;;38.20;1.00;;;;;;5079859;28;20592;-79
2021/06/19 09:54:15;;;;;;;8.83;8.10;;;39.10;1.00;;;;;;5074590;28;20893;-79
2021/06/19 09:56:49;;;;;;;10.43;9.70;;;39.90;1.00;;;;;;5072470;28;21313;-80
2021/06/19 09:59:20;;;;;;;8.50;7.90;;;40.80;1.00;;;;;;5075145;28;20438;-79
2021/06/19 10:01:47;;;;;;;8.40;7.77;;;41.50;1.00;;;;;;5076063;28;20633;-79
2021/06/19 10:04:16;;;;;;;8.77;8.27;;;42.00;1.00;;;;;;5077409;28;20545;-79
2021/06/19 10:06:43;;;;;;;7.97;7.27;;;42.40;1.00;;;;;;5074890;28;20470;-79
2021/06/19 10:09:10;;;;;;;7.80;7.30;;;42.20;1.00;;;;;;5073517;28;21010;-79
2021/06/19 10:11:38;;;;;;;8.03;7.43;;;42.60;1.00;;;;;;5076161;28;20555;-78
2021/06/19 10:14:09;;;;;;;8.57;7.97;;;43.30;1.00;;;;;;5076320;28;20479;-79
2021/06/19 10:16:40;;;;;;;8.10;7.50;;;44.00;1.00;;;;;;5076832;28;20471;-80
2021/06/19 10:19:07;;;;;;;7.87;7.37;;;44.50;1.00;;;;;;5078909;28;20439;-79
2021/06/19 10:21:34;;;;;;;8.00;7.37;;;44.50;1.00;;;;;;5078367;28;20455;-79
2021/06/19 10:24:01;;;;;;;7.90;7.30;;;44.30;1.00;;;;;;5072629;28;20463;-80
2021/06/19 10:26:28;;;;;;;8.00;7.40;;;44.40;1.00;;;;;;5079256;28;20534;-80
2021/06/19 10:28:58;;;;;;;7.53;6.83;;;44.30;1.00;;;;;;5086747;28;20961;-79
2021/06/19 10:31:27;;;;;;;7.90;7.33;;;44.20;1.00;;;;;;5075966;28;20489;-78
2021/06/19 10:33:54;;;;;;;7.47;6.87;;;44.10;1.00;;;;;;5084344;28;20475;-79
2021/06/19 10:36:36;;;;;;;7.20;6.70;;;44.20;1.00;;;;;;5076766;28;20816;-79
2021/06/19 10:39:02;;;;;;;7.30;6.80;;;44.20;1.00;;;;;;5081551;28;20433;-80
2021/06/19 10:41:47;;;;;;;7.57;6.83;;;44.20;1.00;;;;;;5076182;28;20983;-79
2021/06/19 10:44:13;;;;;;;6.90;6.30;;;44.50;1.00;;;;;;5093897;28;20435;-80
2021/06/19 10:46:42;;;;;;;7.60;7.00;;;45.10;1.00;;;;;;5079060;28;20546;-79
2021/06/19 10:49:37;;;;;;;7.50;6.83;;;45.20;1.00;;;;;;5078428;28;20458;-80
2021/06/19 10:52:24;;;;;;;6.90;6.40;;;45.20;1.00;;;;;;5074139;28;20439;-79
2021/06/19 10:55:28;;;;;;;7.53;6.90;;;45.80;1.00;;;;;;5074835;28;20495;-80
2021/06/19 10:58:01;;;;;;;7.20;6.70;;;46.20;1.00;;;;;;5071805;28;20458;-79
2021/06/19 11:00:33;;;;;;;7.00;6.60;;;46.70;1.00;;;;;;5077191;28;20533;-79
2021/06/19 11:03:02;;;;;;;7.43;6.77;;;46.80;1.00;;;;;;5074216;28;20467;-80
2021/06/19 11:05:55;;;;;;;7.17;6.77;;;46.80;1.00;;;;;;5079807;28;20535;-79
2021/06/19 11:08:22;;;;;;;6.63;6.13;;;46.80;1.00;;;;;;5085565;28;20455;-80
2021/06/19 11:10:56;;;;;;;6.77;6.37;;;46.80;1.00;;;;;;5077919;28;20438;-80
2021/06/19 11:13:56;;;;;;;6.90;6.50;;;46.90;1.00;;;;;;5089939;28;20430;-80
2021/06/19 11:16:44;;;;;;;6.70;6.20;;;47.20;1.00;;;;;;5081607;28;20418;-79
2021/06/19 11:19:12;;;;;;;8.37;7.57;;;47.60;1.00;;;;;;5092810;28;20424;-80
2021/06/19 11:21:39;;;;;;;10.77;10.17;;;47.60;1.00;;;;;;5086338;28;20538;-79
2021/06/19 11:24:10;;;;;;;6.80;6.40;;;47.50;1.00;;;;;;5095403;28;20423;-79
2021/06/19 11:26:50;;;;;;;7.23;6.70;;;47.90;1.00;;;;;;5101491;28;20468;-81
2021/06/19 11:29:36;;;;;;;7.93;7.33;;;48.10;1.00;;;;;;5082604;28;20479;-80
2021/06/19 11:32:23;;;;;;;6.50;6.03;;;47.80;1.00;;;;;;5081793;28;20529;-78
2021/06/19 11:34:52;;;;;;;7.93;7.33;;;47.40;1.00;;;;;;5083185;28;20476;-79
2021/06/19 11:37:19;;;;;;;7.07;6.53;;;47.80;1.00;;;;;;5083329;28;21246;-79
2021/06/19 11:39:46;;;;;;;7.10;6.60;;;48.00;1.00;;;;;;5085954;28;21404;-80
2021/06/19 11:42:13;;;;;;;8.03;7.37;;;48.30;1.00;;;;;;5086024;28;21124;-80
2021/06/19 11:44:41;;;;;;;7.60;7.00;;;48.30;1.00;;;;;;5081260;28;20461;-80
2021/06/19 11:47:09;;;;;;;8.30;7.80;;;47.30;1.00;;;;;;5083539;28;20463;-79
2021/06/19 11:49:43;;;;;;;7.93;7.47;;;47.40;1.00;;;;;;5083494;28;20465;-79
2021/06/19 11:52:16;;;;;;;7.97;7.40;;;47.20;1.00;;;;;;5093194;28;20521;-80
2021/06/19 11:54:44;;;;;;;7.87;7.27;;;46.60;1.00;;;;;;5076790;28;20499;-80
2021/06/19 11:57:12;;;;;;;9.27;8.53;;;46.80;1.00;;;;;;5082657;28;21050;-80
2021/06/19 11:59:38;;;;;;;8.57;7.80;;;47.20;1.00;;;;;;5085107;28;20468;-79
2021/06/19 12:02:13;;;;;;;8.60;8.00;;;47.70;1.00;;;;;;5081745;28;20422;-81
2021/06/19 12:04:39;;;;;;;8.20;7.60;;;48.00;1.00;;;;;;5085195;28;20446;-80
2021/06/19 12:07:06;;;;;;;7.47;6.90;;;47.70;1.00;;;;;;5077779;28;20467;-81
2021/06/19 12:09:35;;;;;;;8.33;7.83;;;47.10;1.00;;;;;;5080547;28;20455;-82
2021/06/19 12:12:04;;;;;;;9.20;8.40;;;46.10;1.00;;;;;;5079749;28;20470;-80
2021/06/19 12:14:33;;;;;;;9.20;8.70;;;45.10;1.00;;;;;;5064770;28;21538;-80
2021/06/19 12:17:01;;;;;;;9.70;8.87;;;44.10;1.00;;;;;;5081751;28;20478;-80
2021/06/19 12:19:32;;;;;;;9.43;8.77;;;43.40;1.00;;;;;;5084888;28;20481;-81
2021/06/19 12:22:00;;;;;;;9.37;8.67;;;43.10;1.00;;;;;;5082464;28;20442;-82
2021/06/19 12:24:30;;;;;;;10.50;9.50;;;42.30;1.00;;;;;;5079571;28;21057;-80
2021/06/19 12:27:07;;;;;;;9.50;8.77;;;42.00;1.00;;;;;;5083621;28;20474;-80
2021/06/19 12:29:36;;;;;;;9.20;8.40;;;42.00;1.00;;;;;;5083381;28;20458;-79
2021/06/19 12:32:18;;;;;;;8.67;8.13;;;41.80;1.00;;;;;;5088686;28;21445;-79
2021/06/19 12:34:45;;;;;;;8.80;8.20;;;41.90;1.00;;;;;;5084850;28;20454;-80
2021/06/19 12:37:12;;;;;;;8.77;8.27;;;42.80;1.00;;;;;;5085476;28;20447;-81
2021/06/19 12:39:39;;;;;;;9.33;8.40;;;44.20;1.00;;;;;;5086713;28;20456;-80
2021/06/19 12:42:08;;;;;;;9.00;8.30;;;45.40;1.00;;;;;;5082907;28;20422;-80
2021/06/19 12:44:35;;;;;;;9.77;9.07;;;46.20;1.00;;;;;;5082386;28;20462;-80
2021/06/19 12:47:15;;;;;;;9.80;9.10;;;46.30;1.00;;;;;;5080309;28;20445;-80
2021/06/19 12:49:55;;;;;;;10.10;9.33;;;46.50;1.00;;;;;;5070491;28;20457;-81